Time;durP1;ratioP1;P1;durP2;ratioP2;P2;SDS_P1;SDS_P2;PMS_P1;PMS_P2;Temp;Humidity;BMP_temperature;BMP_pressure;BME280_temperature;BME280_humidity;BME280_pressure;Samples;Min_cycle;Max_cycle;Signal;HPM_P1;HPM_P2
2022/10/06 00:00:30;;;;;;;7.05;1.25;;;;;;;;;;6132958;23;20030;-79
2022/10/06 00:02:59;;;;;;;11.77;1.70;;;;;;;;;;6159397;23;20069;-80
2022/10/06 00:05:27;;;;;;;;;;;;;;;;;;6160085;23;20032;-81
2022/10/06 00:07:54;;;;;;;10.77;1.27;;;;;;;;;;6158018;23;45647;-81
2022/10/06 00:10:20;;;;;;;16.10;1.48;;;;;;;;;;6132170;23;20034;-80
2022/10/06 00:12:48;;;;;;;11.65;1.95;;;;;;;;;;6132098;23;20030;-80
2022/10/06 00:15:16;;;;;;;16.70;2.00;;;;;;;;;;6159545;23;20025;-80
2022/10/06 00:17:42;;;;;;;12.20;1.70;;;;;;;;;;6134150;23;20061;-81
2022/10/06 00:20:09;;;;;;;9.02;1.50;;;;;;;;;;6159243;23;21514;-80
2022/10/06 00:22:36;;;;;;;12.75;1.55;;;;;;;;;;6132574;23;20030;-80
2022/10/06 00:25:03;;;;;;;13.32;1.85;;;;;;;;;;6157734;23;20030;-80
2022/10/06 00:27:37;;;;;;;13.13;1.52;;;;;;;;;;6157923;23;20072;-79
2022/10/06 00:30:04;;;;;;;11.25;1.98;;;;;;;;;;6133199;23;20014;-81
2022/10/06 00:32:30;;;;;;;11.90;1.92;;;;;;;;;;6132215;23;20030;-83
2022/10/06 00:35:00;;;;;;;10.32;1.33;;;;;;;;;;6132168;23;20034;-81
2022/10/06 00:37:27;;;;;;;14.88;1.67;;;;;;;;;;6159094;23;20909;-79
2022/10/06 00:39:53;;;;;;;8.95;1.90;;;;;;;;;;6159035;23;20026;-81
2022/10/06 00:42:24;;;;;;;12.40;1.88;;;;;;;;;;6133085;23;20034;-80
2022/10/06 00:44:51;;;;;;;9.38;1.60;;;;;;;;;;6157650;23;20018;-81
2022/10/06 00:47:20;;;;;;;10.65;1.60;;;;;;;;;;6133623;23;20928;-80
2022/10/06 00:49:46;;;;;;;11.38;1.75;;;;;;;;;;6131927;23;20037;-81
2022/10/06 00:52:14;;;;;;;9.88;1.55;;;;;;;;;;6157918;23;20033;-80
2022/10/06 00:54:41;;;;;;;12.15;1.90;;;;;;;;;;6158104;23;20026;-80
2022/10/06 00:57:08;;;;;;;12.10;2.00;;;;;;;;;;6132756;23;20034;-82
2022/10/06 00:59:35;;;;;;;11.10;1.50;;;;;;;;;;6158480;23;20022;-82
2022/10/06 01:02:02;;;;;;;11.20;1.60;;;;;;;;;;6132434;23;20056;-81
2022/10/06 01:04:32;;;;;;;7.75;1.30;;;;;;;;;;6158400;23;20021;-83
2022/10/06 01:06:59;;;;;;;14.38;1.73;;;;;;;;;;6148438;23;20017;-83
2022/10/06 01:09:25;;;;;;;8.68;1.35;;;;;;;;;;6187773;23;20036;-80
2022/10/06 01:11:53;;;;;;;10.32;1.98;;;;;;;;;;6188087;23;20022;-81
2022/10/06 01:14:20;;;;;;;12.75;1.70;;;;;;;;;;6187177;23;20139;-80
2022/10/06 01:16:48;;;;;;;12.10;1.70;;;;;;;;;;6187805;23;20030;-81
2022/10/06 01:19:28;;;;;;;12.95;2.13;;;;;;;;;;6186729;23;20025;-80
2022/10/06 01:21:56;;;;;;;9.63;1.65;;;;;;;;;;6187893;23;20085;-81
2022/10/06 01:24:22;;;;;;;14.00;1.90;;;;;;;;;;6188096;23;20905;-80
2022/10/06 01:26:50;;;;;;;10.88;2.17;;;;;;;;;;6186267;23;20076;-80
2022/10/06 01:29:17;;;;;;;10.95;1.45;;;;;;;;;;6185763;23;20052;-79
2022/10/06 01:31:43;;;;;;;16.25;1.75;;;;;;;;;;6188241;23;20021;-81
2022/10/06 01:34:09;;;;;;;15.57;1.77;;;;;;;;;;6185847;23;20029;-80
2022/10/06 01:36:38;;;;;;;10.57;1.60;;;;;;;;;;6186431;23;20020;-82
2022/10/06 01:39:04;;;;;;;9.70;1.63;;;;;;;;;;6188621;23;20017;-82
2022/10/06 01:41:32;;;;;;;14.77;2.00;;;;;;;;;;6188318;23;20030;-82
2022/10/06 01:43:59;;;;;;;12.57;1.63;;;;;;;;;;6188073;23;20026;-81
2022/10/06 01:46:27;;;;;;;12.15;1.83;;;;;;;;;;6188873;23;20025;-80
2022/10/06 01:48:53;;;;;;;11.05;1.40;;;;;;;;;;6188283;23;20946;-79
2022/10/06 01:51:20;;;;;;;8.25;1.67;;;;;;;;;;6187108;23;20036;-81
2022/10/06 01:53:46;;;;;;;7.18;1.55;;;;;;;;;;6187096;23;20099;-80
2022/10/06 01:56:12;;;;;;;12.63;1.90;;;;;;;;;;6187796;23;20014;-80
2022/10/06 01:58:39;;;;;;;12.25;1.80;;;;;;;;;;6187206;23;20029;-80
2022/10/06 02:01:06;;;;;;;12.18;1.98;;;;;;;;;;6188609;23;20017;-84
2022/10/06 02:03:34;;;;;;;8.70;1.40;;;;;;;;;;6190210;23;20025;-82
2022/10/06 02:06:01;;;;;;;4.75;1.15;;;;;;;;;;6190442;23;20816;-81
2022/10/06 02:08:27;;;;;;;13.00;1.98;;;;;;;;;;6187491;23;20535;-82
2022/10/06 02:10:54;;;;;;;10.88;1.65;;;;;;;;;;6187913;23;20467;-81
2022/10/06 02:13:23;;;;;;;11.10;1.75;;;;;;;;;;6187675;23;20053;-81
2022/10/06 02:15:50;;;;;;;7.32;1.42;;;;;;;;;;6188089;23;20033;-80
2022/10/06 02:18:16;;;;;;;11.98;1.73;;;;;;;;;;6189317;23;20848;-81
2022/10/06 02:20:49;;;;;;;10.07;1.95;;;;;;;;;;6187094;23;20085;-81
2022/10/06 02:23:25;;;;;;;11.23;1.73;;;;;;;;;;6187078;23;20453;-81
2022/10/06 02:26:00;;;;;;;11.43;1.77;;;;;;;;;;6188211;23;20032;-81
2022/10/06 02:28:31;;;;;;;14.45;1.58;;;;;;;;;;6186704;23;20108;-83
2022/10/06 02:31:00;;;;;;;13.50;1.88;;;;;;;;;;6188451;23;20039;-82
2022/10/06 02:33:26;;;;;;;17.30;1.60;;;;;;;;;;6186795;23;20030;-79
2022/10/06 02:35:53;;;;;;;12.35;1.50;;;;;;;;;;6186672;23;20038;-81
2022/10/06 02:38:19;;;;;;;10.90;2.05;;;;;;;;;;6187568;23;20029;-82
2022/10/06 02:40:45;;;;;;;9.13;1.55;;;;;;;;;;6188597;23;20022;-81
2022/10/06 02:43:11;;;;;;;9.23;1.73;;;;;;;;;;6188853;23;20029;-81
2022/10/06 02:45:38;;;;;;;7.40;1.50;;;;;;;;;;6189677;23;20026;-81
2022/10/06 02:48:04;;;;;;;14.43;1.85;;;;;;;;;;6186620;23;20034;-82
2022/10/06 02:50:31;;;;;;;10.48;1.55;;;;;;;;;;6189102;23;20028;-79
2022/10/06 02:52:57;;;;;;;12.68;1.55;;;;;;;;;;6187606;23;20026;-82
2022/10/06 02:55:23;;;;;;;10.35;1.45;;;;;;;;;;6184949;23;21001;-81
2022/10/06 02:57:50;;;;;;;11.45;1.75;;;;;;;;;;6184946;23;20033;-80
2022/10/06 03:00:16;;;;;;;13.55;1.60;;;;;;;;;;6188129;23;20106;-82
2022/10/06 03:02:42;;;;;;;8.10;1.88;;;;;;;;;;6187405;23;20505;-83
2022/10/06 03:05:09;;;;;;;10.70;1.55;;;;;;;;;;6188961;23;20028;-81
2022/10/06 03:07:35;;;;;;;10.80;1.65;;;;;;;;;;6171099;23;20878;-82
2022/10/06 03:10:01;;;;;;;9.00;1.75;;;;;;;;;;6158744;23;20917;-82
2022/10/06 03:12:28;;;;;;;10.82;1.40;;;;;;;;;;6159382;23;20510;-81
2022/10/06 03:14:55;;;;;;;10.02;1.75;;;;;;;;;;6132880;23;20045;-83
2022/10/06 03:17:21;;;;;;;19.23;3.20;;;;;;;;;;6158818;23;20065;-84
2022/10/06 03:19:47;;;;;;;19.33;1.55;;;;;;;;;;6158189;23;20032;-82
2022/10/06 03:22:14;;;;;;;8.23;1.25;;;;;;;;;;6159588;23;20034;-81
2022/10/06 03:24:40;;;;;;;12.05;1.85;;;;;;;;;;6131704;23;20113;-82
2022/10/06 03:27:06;;;;;;;10.95;1.60;;;;;;;;;;6133480;23;20519;-81
2022/10/06 03:29:33;;;;;;;11.60;1.60;;;;;;;;;;6131884;23;20112;-80
2022/10/06 03:32:00;;;;;;;13.63;1.70;;;;;;;;;;6131875;23;20025;-83
2022/10/06 03:34:26;;;;;;;11.02;1.73;;;;;;;;;;6157167;23;20101;-80
2022/10/06 03:36:53;;;;;;;9.40;1.52;;;;;;;;;;6158408;23;20111;-80
2022/10/06 03:39:19;;;;;;;11.55;1.30;;;;;;;;;;6134060;23;20026;-80
2022/10/06 03:41:45;;;;;;;12.45;1.50;;;;;;;;;;6132388;23;20034;-79
2022/10/06 03:44:12;;;;;;;13.43;1.63;;;;;;;;;;6131004;23;20037;-80
2022/10/06 03:46:38;;;;;;;12.63;1.60;;;;;;;;;;6131517;23;20026;-80
2022/10/06 03:49:05;;;;;;;10.65;1.63;;;;;;;;;;6157311;23;20747;-82
2022/10/06 03:51:36;;;;;;;10.52;2.08;;;;;;;;;;6132777;23;20107;-81
2022/10/06 03:54:03;;;;;;;10.57;1.63;;;;;;;;;;6132180;23;20037;-79
2022/10/06 03:56:30;;;;;;;8.93;1.40;;;;;;;;;;6157940;23;20033;-82
2022/10/06 03:59:00;;;;;;;14.25;1.67;;;;;;;;;;6132377;23;20036;-80
2022/10/06 04:01:34;;;;;;;7.20;1.63;;;;;;;;;;6131272;23;20573;-81
2022/10/06 04:04:01;;;;;;;13.15;1.77;;;;;;;;;;6132527;23;20062;-79
2022/10/06 04:06:28;;;;;;;12.52;1.45;;;;;;;;;;6132610;23;20522;-78
2022/10/06 04:08:55;;;;;;;13.10;1.25;;;;;;;;;;6158493;23;20038;-80
2022/10/06 04:11:22;;;;;;;8.60;1.48;;;;;;;;;;6132101;23;20032;-80
2022/10/06 04:13:53;;;;;;;12.25;1.58;;;;;;;;;;6158395;23;20034;-80
2022/10/06 04:16:21;;;;;;;11.18;1.67;;;;;;;;;;6131765;23;20083;-79
2022/10/06 04:18:49;;;;;;;13.98;1.60;;;;;;;;;;6157587;23;20022;-79
2022/10/06 04:21:16;;;;;;;12.18;1.50;;;;;;;;;;6131121;23;20021;-79
2022/10/06 04:23:42;;;;;;;9.98;1.65;;;;;;;;;;6158342;23;20030;-80
2022/10/06 04:26:11;;;;;;;8.70;1.40;;;;;;;;;;6132397;23;20029;-82
2022/10/06 04:28:38;;;;;;;11.85;1.50;;;;;;;;;;6133055;23;20021;-79
2022/10/06 04:31:24;;;;;;;11.30;1.73;;;;;;;;;;6158772;23;20075;-80
2022/10/06 04:33:52;;;;;;;8.70;1.40;;;;;;;;;;6158999;23;20050;-84
2022/10/06 04:36:23;;;;;;;9.52;1.38;;;;;;;;;;6159179;23;20025;-80
2022/10/06 04:38:49;;;;;;;10.43;1.42;;;;;;;;;;6132552;23;20029;-80
2022/10/06 04:41:17;;;;;;;11.13;1.80;;;;;;;;;;6133122;23;20041;-82
2022/10/06 04:43:44;;;;;;;12.40;1.58;;;;;;;;;;6159165;23;20025;-80
2022/10/06 04:46:10;;;;;;;5.75;1.40;;;;;;;;;;6131745;23;20030;-81
2022/10/06 04:48:56;;;;;;;14.30;2.58;;;;;;;;;;6158499;23;20085;-82
2022/10/06 04:51:24;;;;;;;11.52;2.13;;;;;;;;;;6157798;23;20026;-81
2022/10/06 04:53:51;;;;;;;7.50;1.73;;;;;;;;;;6131009;23;20032;-79
2022/10/06 04:56:19;;;;;;;11.63;1.58;;;;;;;;;;6157873;23;20036;-79
2022/10/06 04:58:47;;;;;;;10.15;1.27;;;;;;;;;;6131059;23;20026;-80
2022/10/06 05:01:20;;;;;;;10.68;1.70;;;;;;;;;;6131656;23;20034;-80
2022/10/06 05:03:48;;;;;;;13.00;1.55;;;;;;;;;;6131797;23;20021;-82
2022/10/06 05:06:16;;;;;;;8.77;2.22;;;;;;;;;;6131935;23;20487;-80
2022/10/06 05:08:45;;;;;;;7.97;1.30;;;;;;;;;;6157153;23;20014;-81
2022/10/06 05:11:11;;;;;;;11.05;1.42;;;;;;;;;;6131235;23;20034;-81
2022/10/06 05:13:42;;;;;;;10.07;1.23;;;;;;;;;;6132716;23;20080;-80
2022/10/06 05:16:10;;;;;;;6.65;1.23;;;;;;;;;;6132739;23;20020;-80
2022/10/06 05:18:40;;;;;;;9.32;1.30;;;;;;;;;;6158541;23;20056;-79
2022/10/06 05:21:16;;;;;;;9.48;1.48;;;;;;;;;;6133398;23;20033;-80
2022/10/06 05:23:42;;;;;;;13.85;1.95;;;;;;;;;;6157558;23;20415;-79
2022/10/06 05:26:09;;;;;;;12.07;2.10;;;;;;;;;;6131254;23;20028;-80
2022/10/06 05:28:36;;;;;;;10.27;1.90;;;;;;;;;;6131950;23;20030;-81
2022/10/06 05:31:08;;;;;;;12.85;2.63;;;;;;;;;;6131348;23;20475;-82
2022/10/06 05:33:35;;;;;;;9.63;1.73;;;;;;;;;;6132095;23;20033;-80
2022/10/06 05:36:05;;;;;;;13.07;2.08;;;;;;;;;;6132341;23;20033;-82
2022/10/06 05:38:32;;;;;;;7.03;1.40;;;;;;;;;;6132734;23;20038;-81
2022/10/06 05:41:12;;;;;;;7.97;1.60;;;;;;;;;;6158117;23;20056;-83
2022/10/06 05:43:38;;;;;;;11.15;1.63;;;;;;;;;;6158259;23;20447;-81
2022/10/06 05:46:06;;;;;;;10.23;1.77;;;;;;;;;;6132353;23;20025;-80
2022/10/06 05:48:33;;;;;;;12.32;1.58;;;;;;;;;;6132050;23;20077;-80
2022/10/06 05:51:00;;;;;;;12.73;1.77;;;;;;;;;;6158263;23;20033;-82
2022/10/06 05:53:28;;;;;;;13.88;1.80;;;;;;;;;;6157022;23;20026;-80
2022/10/06 05:56:08;;;;;;;13.43;1.70;;;;;;;;;;6158153;23;20036;-80
2022/10/06 05:58:35;;;;;;;11.07;1.73;;;;;;;;;;6131413;23;20026;-82
2022/10/06 06:01:12;;;;;;;22.58;2.92;;;;;;;;;;6157592;23;20055;-80
2022/10/06 06:03:38;;;;;;;14.82;2.08;;;;;;;;;;6132457;23;20026;-83
2022/10/06 06:06:16;;;;;;;13.57;1.77;;;;;;;;;;6132672;23;20043;-81
2022/10/06 06:08:42;;;;;;;9.45;1.65;;;;;;;;;;6162684;23;20046;-86
2022/10/06 06:11:08;;;;;;;10.15;1.63;;;;;;;;;;6164906;23;20025;-85
2022/10/06 06:13:35;;;;;;;10.18;1.70;;;;;;;;;;6165266;23;20033;-82
2022/10/06 06:16:03;;;;;;;10.38;1.58;;;;;;;;;;6160625;23;20038;-79
2022/10/06 06:18:30;;;;;;;12.20;1.75;;;;;;;;;;6158041;23;20464;-80
2022/10/06 06:20:59;;;;;;;9.55;1.45;;;;;;;;;;6156920;23;20073;-81
2022/10/06 06:23:29;;;;;;;19.20;2.00;;;;;;;;;;6157119;23;20475;-82
2022/10/06 06:25:56;;;;;;;;;;;;;;;;;;6158374;23;20033;-79
2022/10/06 06:28:28;;;;;;;;;;;;;;;;;;6156443;23;47164;-86
2022/10/06 06:31:13;;;;;;;11.80;1.60;;;;;;;;;;6156032;23;43719;-78
2022/10/06 06:33:46;;;;;;;8.82;1.38;;;;;;;;;;6160523;23;20022;-80
2022/10/06 06:36:25;;;;;;;14.93;2.00;;;;;;;;;;6157374;23;20030;-81
2022/10/06 06:38:53;;;;;;;14.13;2.30;;;;;;;;;;6160655;23;20030;-82
2022/10/06 06:41:23;;;;;;;11.20;2.15;;;;;;;;;;6162107;23;20809;-82
2022/10/06 06:43:51;;;;;;;12.43;2.05;;;;;;;;;;6157516;23;20038;-80
2022/10/06 06:46:19;;;;;;;12.80;1.98;;;;;;;;;;6158671;23;20014;-79
2022/10/06 06:48:46;;;;;;;16.80;3.13;;;;;;;;;;6159688;23;20109;-78
2022/10/06 06:51:12;;;;;;;13.70;2.10;;;;;;;;;;6158599;23;20873;-79
2022/10/06 06:53:39;;;;;;;14.65;2.15;;;;;;;;;;6156736;23;20030;-80
2022/10/06 06:56:07;;;;;;;11.38;2.13;;;;;;;;;;6156115;23;20030;-80
2022/10/06 06:58:36;;;;;;;12.40;1.73;;;;;;;;;;6155053;23;20077;-80
2022/10/06 07:01:13;;;;;;;15.95;2.17;;;;;;;;;;6157324;23;20427;-85
2022/10/06 07:03:44;;;;;;;15.25;1.73;;;;;;;;;;6157825;23;20073;-83
2022/10/06 07:06:25;;;;;;;11.68;1.67;;;;;;;;;;6156908;23;20022;-80
2022/10/06 07:08:54;;;;;;;13.88;2.25;;;;;;;;;;6157612;23;20498;-83
2022/10/06 07:11:22;;;;;;;18.58;2.00;;;;;;;;;;6156961;23;20026;-80
2022/10/06 07:13:52;;;;;;;10.50;2.13;;;;;;;;;;6131799;23;20037;-81
2022/10/06 07:27:23;;;;;;;9.45;2.03;;;;;;;;;;6157754;23;20026;-80
2022/10/06 07:29:53;;;;;;;11.02;1.60;;;;;;;;;;6133228;23;20538;-81
2022/10/06 07:32:21;;;;;;;14.63;2.05;;;;;;;;;;6160026;23;20078;-83
2022/10/06 07:34:48;;;;;;;19.73;2.40;;;;;;;;;;6158448;23;20109;-80
2022/10/06 07:37:15;;;;;;;16.35;2.08;;;;;;;;;;6132827;23;20480;-84
2022/10/06 07:39:43;;;;;;;13.90;2.13;;;;;;;;;;6159622;23;20041;-80
2022/10/06 07:42:14;;;;;;;14.63;1.98;;;;;;;;;;6134483;23;20018;-82
2022/10/06 07:47:36;;;;;;;15.73;2.65;;;;;;;;;;6159709;23;20026;-82
2022/10/06 07:50:07;;;;;;;12.85;2.40;;;;;;;;;;6136759;23;20797;-79
2022/10/06 07:52:37;;;;;;;10.35;1.75;;;;;;;;;;6162215;23;20030;-80
2022/10/06 07:55:04;;;;;;;;;;;;;;;;;;6140893;23;20018;-86
2022/10/06 07:57:33;;;;;;;12.43;2.08;;;;;;;;;;6132256;23;47318;-83
2022/10/06 08:00:00;;;;;;;14.18;1.98;;;;;;;;;;6134914;23;20498;-79
2022/10/06 08:02:28;;;;;;;12.63;2.03;;;;;;;;;;6135047;23;20081;-82
2022/10/06 08:05:00;;;;;;;10.13;1.70;;;;;;;;;;6136842;23;20089;-81
2022/10/06 08:07:26;;;;;;;17.52;2.28;;;;;;;;;;6165558;23;20054;-80
2022/10/06 08:09:53;;;;;;;9.27;1.45;;;;;;;;;;6161728;23;20109;-81
2022/10/06 08:12:32;;;;;;;12.38;1.75;;;;;;;;;;6134366;23;20072;-80
2022/10/06 08:15:02;;;;;;;16.13;2.75;;;;;;;;;;6127542;23;20033;-79
2022/10/06 08:17:36;;;;;;;11.27;1.95;;;;;;;;;;6129094;23;20064;-79
2022/10/06 08:20:05;;;;;;;10.73;1.92;;;;;;;;;;6130101;23;20096;-80
2022/10/06 08:22:32;;;;;;;8.25;1.63;;;;;;;;;;6153640;23;20026;-80
2022/10/06 08:24:58;;;;;;;12.93;2.67;;;;;;;;;;6128608;23;20033;-78
2022/10/06 08:27:33;;;;;;;15.77;2.10;;;;;;;;;;6129446;23;20534;-79
2022/10/06 08:30:00;;;;;;;10.27;1.55;;;;;;;;;;6156682;23;20037;-81
2022/10/06 08:32:27;;;;;;;13.98;2.13;;;;;;;;;;6155824;23;20030;-83
2022/10/06 08:34:53;;;;;;;7.03;1.60;;;;;;;;;;6128360;23;20463;-81
2022/10/06 08:37:22;;;;;;;11.85;2.50;;;;;;;;;;6129354;23;20050;-84
2022/10/06 08:39:50;;;;;;;12.00;2.03;;;;;;;;;;6128825;23;20506;-81
2022/10/06 08:42:31;;;;;;;10.13;1.77;;;;;;;;;;6131498;23;20081;-82
2022/10/06 08:44:59;;;;;;;14.35;1.83;;;;;;;;;;6133002;23;20041;-80
2022/10/06 08:47:32;;;;;;;13.90;2.03;;;;;;;;;;6157353;23;20481;-80
2022/10/06 08:49:58;;;;;;;14.63;2.13;;;;;;;;;;6158390;23;20029;-79
2022/10/06 08:52:45;;;;;;;11.80;2.00;;;;;;;;;;6157781;23;20041;-84
2022/10/06 08:55:11;;;;;;;14.45;1.80;;;;;;;;;;6156731;23;20037;-84
2022/10/06 08:57:40;;;;;;;12.75;2.05;;;;;;;;;;6154580;23;20026;-81
2022/10/06 09:00:10;;;;;;;9.48;1.98;;;;;;;;;;6128397;23;20065;-78
2022/10/06 09:02:41;;;;;;;10.52;1.58;;;;;;;;;;6156158;23;20030;-81
2022/10/06 09:05:08;;;;;;;9.13;2.28;;;;;;;;;;6156515;23;20030;-81
2022/10/06 09:07:40;;;;;;;15.75;1.70;;;;;;;;;;6159761;23;20833;-80
2022/10/06 09:10:25;;;;;;;15.05;1.80;;;;;;;;;;6186643;23;20590;-80
2022/10/06 09:13:05;;;;;;;8.70;1.83;;;;;;;;;;6185422;23;20067;-84
2022/10/06 09:15:35;;;;;;;8.82;1.63;;;;;;;;;;6187547;23;21089;-79
2022/10/06 09:18:09;;;;;;;10.52;1.55;;;;;;;;;;6185365;23;20034;-80
2022/10/06 09:20:38;;;;;;;15.00;2.13;;;;;;;;;;6186384;23;20762;-80
2022/10/06 09:23:11;;;;;;;17.20;1.70;;;;;;;;;;6184793;23;20828;-82
2022/10/06 09:25:40;;;;;;;8.68;1.80;;;;;;;;;;6186092;23;20033;-80
2022/10/06 09:28:10;;;;;;;10.98;1.80;;;;;;;;;;6184647;23;20029;-80
2022/10/06 09:30:36;;;;;;;7.53;1.13;;;;;;;;;;6186156;23;20114;-79
2022/10/06 09:33:04;;;;;;;12.15;2.15;;;;;;;;;;6185676;23;20407;-81
2022/10/06 09:35:31;;;;;;;11.30;2.15;;;;;;;;;;6186704;23;20068;-79
2022/10/06 09:38:02;;;;;;;12.32;2.13;;;;;;;;;;6187382;23;20026;-82
2022/10/06 09:40:53;;;;;;;17.15;2.35;;;;;;;;;;6184966;23;20374;-81
2022/10/06 09:43:26;;;;;;;10.77;1.60;;;;;;;;;;6187793;23;20029;-86
2022/10/06 09:45:53;;;;;;;8.63;1.67;;;;;;;;;;6188108;23;20040;-81
2022/10/06 09:48:24;;;;;;;10.85;1.67;;;;;;;;;;6185582;23;20052;-87
2022/10/06 09:50:50;;;;;;;;;;;;;;;;;;6186851;23;20025;-82
2022/10/06 09:53:17;;;;;;;10.32;1.88;;;;;;;;;;6185375;23;47350;-79
2022/10/06 09:55:45;;;;;;;9.52;1.77;;;;;;;;;;6185861;23;20449;-80
2022/10/06 09:58:22;;;;;;;15.80;2.13;;;;;;;;;;6185520;23;20033;-79
2022/10/06 10:00:48;;;;;;;11.20;1.65;;;;;;;;;;6184783;23;20632;-83
2022/10/06 10:03:15;;;;;;;12.60;1.70;;;;;;;;;;6185108;23;20100;-83
2022/10/06 10:05:49;;;;;;;11.02;1.33;;;;;;;;;;6187210;23;20029;-79
2022/10/06 10:08:21;;;;;;;11.68;1.38;;;;;;;;;;6161336;23;20022;-80
2022/10/06 10:10:48;;;;;;;12.32;1.58;;;;;;;;;;6157067;23;20466;-80
2022/10/06 10:13:21;;;;;;;10.80;1.40;;;;;;;;;;6131147;23;20030;-79
2022/10/06 10:15:51;;;;;;;8.52;1.48;;;;;;;;;;6130790;23;20447;-81
2022/10/06 10:18:21;;;;;;;10.80;1.83;;;;;;;;;;6156461;23;20502;-82
2022/10/06 10:20:58;;;;;;;13.10;2.03;;;;;;;;;;6156295;23;20081;-81
2022/10/06 10:23:29;;;;;;;14.30;2.42;;;;;;;;;;6130574;23;20037;-80
2022/10/06 10:26:06;;;;;;;10.35;1.58;;;;;;;;;;6156523;23;20022;-78
2022/10/06 10:28:52;;;;;;;9.52;1.77;;;;;;;;;;6129830;23;20034;-80
2022/10/06 10:31:29;;;;;;;7.68;1.60;;;;;;;;;;6129932;23;20037;-83
2022/10/06 10:34:15;;;;;;;5.78;0.98;;;;;;;;;;6129431;23;20034;-80
2022/10/06 10:36:53;;;;;;;8.73;1.30;;;;;;;;;;6155361;23;20022;-79
2022/10/06 10:39:31;;;;;;;8.80;1.77;;;;;;;;;;6155214;23;20061;-80
2022/10/06 10:42:01;;;;;;;7.05;1.23;;;;;;;;;;6155204;23;20057;-80
2022/10/06 10:44:33;;;;;;;7.97;1.27;;;;;;;;;;6129128;23;20391;-80
2022/10/06 10:47:05;;;;;;;6.07;0.95;;;;;;;;;;6128930;23;20104;-80
2022/10/06 10:49:33;;;;;;;12.57;1.67;;;;;;;;;;6128339;23;20037;-82
2022/10/06 10:52:03;;;;;;;5.78;1.10;;;;;;;;;;6129109;23;20810;-80
2022/10/06 10:54:36;;;;;;;8.88;1.50;;;;;;;;;;6154577;23;20046;-79
2022/10/06 10:57:03;;;;;;;7.68;1.23;;;;;;;;;;6127880;23;20029;-81
2022/10/06 10:59:29;;;;;;;9.00;1.35;;;;;;;;;;6128584;23;20026;-83
2022/10/06 11:01:55;;;;;;;8.55;1.30;;;;;;;;;;6128345;23;20070;-83
2022/10/06 11:04:22;;;;;;;9.70;1.80;;;;;;;;;;6129007;23;20026;-81
2022/10/06 11:06:54;;;;;;;11.30;1.70;;;;;;;;;;6140489;23;20047;-80
2022/10/06 11:09:42;;;;;;;7.35;1.48;;;;;;;;;;6185613;23;20033;-80
2022/10/06 11:12:27;;;;;;;7.93;1.30;;;;;;;;;;6138161;23;20490;-84
2022/10/06 11:14:54;;;;;;;11.52;2.58;;;;;;;;;;6183118;23;20025;-80
2022/10/06 11:17:43;;;;;;;7.22;1.38;;;;;;;;;;6184867;23;20029;-79
2022/10/06 11:20:28;;;;;;;11.05;1.60;;;;;;;;;;6184797;23;20057;-81
2022/10/06 11:22:58;;;;;;;9.10;1.60;;;;;;;;;;6185339;23;20029;-83
2022/10/06 11:25:27;;;;;;;8.95;1.58;;;;;;;;;;6184622;23;20032;-80
2022/10/06 11:28:11;;;;;;;5.30;1.27;;;;;;;;;;6183834;23;20025;-81
2022/10/06 11:31:04;;;;;;;11.20;1.60;;;;;;;;;;6184957;23;20439;-83
2022/10/06 11:33:42;;;;;;;9.23;1.10;;;;;;;;;;6180336;23;20021;-79
2022/10/06 11:36:24;;;;;;;7.82;0.98;;;;;;;;;;6184702;23;20026;-79
2022/10/06 11:39:10;;;;;;;9.88;1.40;;;;;;;;;;6185693;23;20030;-80
2022/10/06 11:41:41;;;;;;;9.07;1.38;;;;;;;;;;6184448;23;20026;-80
2022/10/06 11:44:26;;;;;;;10.18;1.33;;;;;;;;;;6184021;23;20821;-82
2022/10/06 11:46:55;;;;;;;14.77;1.48;;;;;;;;;;6184190;23;20035;-79
2022/10/06 11:49:28;;;;;;;8.90;1.48;;;;;;;;;;6184564;23;20109;-80
2022/10/06 11:51:54;;;;;;;7.05;1.40;;;;;;;;;;6182531;23;20069;-83
2022/10/06 11:54:46;;;;;;;8.13;1.20;;;;;;;;;;6184586;23;20504;-79
2022/10/06 11:57:21;;;;;;;8.68;1.50;;;;;;;;;;6181657;23;20398;-79
2022/10/06 12:00:02;;;;;;;9.90;1.30;;;;;;;;;;6182536;23;20033;-81
2022/10/06 12:02:31;;;;;;;5.47;1.02;;;;;;;;;;6183540;23;20108;-78
2022/10/06 12:05:13;;;;;;;6.65;1.02;;;;;;;;;;6185245;23;20033;-79
2022/10/06 12:07:59;;;;;;;7.70;1.15;;;;;;;;;;6162349;23;20026;-81
2022/10/06 12:10:26;;;;;;;8.13;1.20;;;;;;;;;;6154603;23;20037;-80
2022/10/06 12:13:08;;;;;;;7.47;1.20;;;;;;;;;;6129541;23;20030;-81
2022/10/06 12:15:52;;;;;;;8.05;1.00;;;;;;;;;;6154345;23;20048;-79
2022/10/06 12:18:44;;;;;;;8.35;1.20;;;;;;;;;;6154450;23;20534;-78
2022/10/06 12:21:11;;;;;;;6.47;1.05;;;;;;;;;;6128462;23;20041;-80
2022/10/06 12:24:03;;;;;;;7.88;1.30;;;;;;;;;;6129763;23;20022;-80
2022/10/06 12:26:30;;;;;;;;;;;;;;;;;;6130287;23;20038;-79
2022/10/06 12:29:12;;;;;;;10.18;1.33;;;;;;;;;;6152865;23;43780;-80
2022/10/06 12:31:41;;;;;;;6.80;1.45;;;;;;;;;;6154150;23;20062;-79
2022/10/06 12:34:26;;;;;;;9.10;1.40;;;;;;;;;;6155435;23;20046;-80
2022/10/06 12:37:12;;;;;;;7.28;1.75;;;;;;;;;;6155279;23;20037;-79
2022/10/06 12:39:39;;;;;;;5.47;1.23;;;;;;;;;;6128252;23;20029;-81
2022/10/06 12:42:06;;;;;;;6.82;1.35;;;;;;;;;;6156504;23;20033;-79
2022/10/06 12:44:36;;;;;;;8.85;1.67;;;;;;;;;;6157150;23;20037;-80
2022/10/06 12:47:07;;;;;;;5.45;1.10;;;;;;;;;;6156227;23;20037;-80
2022/10/06 12:49:35;;;;;;;;;;;;;;;;;;6156778;23;20030;-81
2022/10/06 12:52:25;;;;;;;5.00;1.10;;;;;;;;;;6152421;23;47300;-80
2022/10/06 12:55:17;;;;;;;5.68;1.10;;;;;;;;;;6117411;23;20089;-78
2022/10/06 12:57:45;;;;;;;7.25;1.10;;;;;;;;;;6110380;23;20088;-81
2022/10/06 13:00:33;;;;;;;8.60;1.58;;;;;;;;;;6126547;23;20211;-80
2022/10/06 13:03:01;;;;;;;6.30;0.88;;;;;;;;;;6130146;23;20145;-80
2022/10/06 13:05:28;;;;;;;5.65;1.52;;;;;;;;;;6155786;23;20026;-80
2022/10/06 13:07:56;;;;;;;6.05;1.20;;;;;;;;;;6168950;23;20021;-81
2022/10/06 13:10:23;;;;;;;5.55;1.15;;;;;;;;;;6187824;23;20692;-84
2022/10/06 13:12:56;;;;;;;7.55;1.05;;;;;;;;;;6187821;23;20025;-80
2022/10/06 13:15:35;;;;;;;5.80;1.15;;;;;;;;;;6188294;23;20033;-83
2022/10/06 13:18:02;;;;;;;7.43;1.13;;;;;;;;;;6186025;23;20036;-83
2022/10/06 13:20:40;;;;;;;8.93;1.30;;;;;;;;;;6188424;23;20026;-81
2022/10/06 13:23:16;;;;;;;7.28;1.00;;;;;;;;;;6185389;23;20034;-79
2022/10/06 13:25:47;;;;;;;8.77;1.20;;;;;;;;;;6186251;23;20017;-80
2022/10/06 13:28:20;;;;;;;6.07;1.02;;;;;;;;;;6185697;23;20033;-80
2022/10/06 13:30:51;;;;;;;8.65;1.52;;;;;;;;;;6184070;23;20030;-79
2022/10/06 13:33:20;;;;;;;5.90;1.35;;;;;;;;;;6186490;23;20029;-79
2022/10/06 13:35:48;;;;;;;8.32;1.20;;;;;;;;;;6185642;23;20501;-80
2022/10/06 13:38:14;;;;;;;6.10;1.10;;;;;;;;;;6185325;23;20066;-80
2022/10/06 13:40:41;;;;;;;8.30;1.50;;;;;;;;;;6187633;23;20032;-80
2022/10/06 13:43:13;;;;;;;4.45;1.00;;;;;;;;;;6186193;23;20470;-79
2022/10/06 13:45:41;;;;;;;5.63;1.10;;;;;;;;;;6188944;23;20049;-79
2022/10/06 13:48:12;;;;;;;11.10;1.60;;;;;;;;;;6187636;23;20022;-79
2022/10/06 13:50:43;;;;;;;7.80;1.02;;;;;;;;;;6186305;23;20033;-79
2022/10/06 13:53:09;;;;;;;;;;;;;;;;;;6187318;23;20026;-79
2022/10/06 13:55:35;;;;;;;4.88;1.00;;;;;;;;;;6185773;23;47882;-79
2022/10/06 13:58:02;;;;;;;8.68;1.25;;;;;;;;;;6183703;23;20033;-78
2022/10/06 14:00:47;;;;;;;9.45;1.38;;;;;;;;;;6184714;23;20017;-79
2022/10/06 14:03:19;;;;;;;8.30;1.52;;;;;;;;;;6188173;23;20037;-79
2022/10/06 14:05:45;;;;;;;5.32;1.35;;;;;;;;;;6186751;23;20438;-80
2022/10/06 14:08:11;;;;;;;5.65;1.30;;;;;;;;;;6186621;23;20034;-80
2022/10/06 14:10:45;;;;;;;7.32;1.20;;;;;;;;;;6187185;23;20189;-79
2022/10/06 14:13:22;;;;;;;6.82;1.08;;;;;;;;;;6186075;23;20430;-80
2022/10/06 14:15:58;;;;;;;6.65;1.10;;;;;;;;;;6187869;23;20021;-80
2022/10/06 14:18:41;;;;;;;7.25;1.48;;;;;;;;;;6188173;23;20506;-81
2022/10/06 14:21:17;;;;;;;7.07;1.25;;;;;;;;;;6185047;23;20089;-80
2022/10/06 14:23:48;;;;;;;6.18;0.90;;;;;;;;;;6185257;23;20065;-80
2022/10/06 14:26:15;;;;;;;6.40;1.33;;;;;;;;;;6184808;23;20021;-79
2022/10/06 14:28:46;;;;;;;7.43;1.08;;;;;;;;;;6183974;23;20021;-80
2022/10/06 14:31:14;;;;;;;8.70;1.08;;;;;;;;;;6183405;23;20029;-80
2022/10/06 14:33:41;;;;;;;9.27;1.27;;;;;;;;;;6186899;23;20154;-79
2022/10/06 14:36:18;;;;;;;7.75;1.10;;;;;;;;;;6185029;23;20021;-80
2022/10/06 14:38:46;;;;;;;9.63;1.40;;;;;;;;;;6184280;23;20025;-79
2022/10/06 14:41:14;;;;;;;6.85;1.00;;;;;;;;;;6186354;23;20024;-79
2022/10/06 14:43:56;;;;;;;4.45;1.00;;;;;;;;;;6185243;23;20109;-79
2022/10/06 14:46:24;;;;;;;10.85;1.08;;;;;;;;;;6184393;23;20066;-79
2022/10/06 14:48:51;;;;;;;7.90;1.63;;;;;;;;;;6186354;23;20022;-79
2022/10/06 14:51:20;;;;;;;10.15;2.17;;;;;;;;;;6188645;23;20030;-79
2022/10/06 14:53:55;;;;;;;4.60;0.98;;;;;;;;;;6182065;23;20018;-79
2022/10/06 14:56:22;;;;;;;8.02;1.13;;;;;;;;;;6184431;23;20026;-79
2022/10/06 14:58:50;;;;;;;5.68;1.02;;;;;;;;;;6184522;23;20082;-79
2022/10/06 15:01:19;;;;;;;7.53;1.00;;;;;;;;;;6185166;23;20427;-80
2022/10/06 15:03:50;;;;;;;4.88;1.20;;;;;;;;;;6185246;23;20037;-80
2022/10/06 15:09:02;;;;;;;6.15;0.93;;;;;;;;;;6154713;23;45624;-80
2022/10/06 15:11:28;;;;;;;4.97;0.88;;;;;;;;;;6131566;23;20034;-80
2022/10/06 15:13:56;;;;;;;6.18;0.93;;;;;;;;;;6157069;23;20033;-80